sensor_id;sensor_type;location;lat;lon;timestamp;pressure;altitude;pressure_sealevel;temperature;humidity
6833;BME280;3454;42.654;23.378;2023-07-31T00:00:23;65192.72;;;20.99;97.12
6833;BME280;3454;42.654;23.378;2023-07-31T00:02:48;65196.63;;;21.03;96.32
6833;BME280;3454;42.654;23.378;2023-07-31T00:05:15;65200.84;;;21.04;96.23
6833;BME280;3454;42.654;23.378;2023-07-31T00:07:41;65188.84;;;20.96;96.69
6833;BME280;3454;42.654;23.378;2023-07-31T00:10:06;65187.41;;;20.97;96.66
6833;BME280;3454;42.654;23.378;2023-07-31T00:12:32;65196.28;;;21.05;96.87
6833;BME280;3454;42.654;23.378;2023-07-31T00:14:57;65201.06;;;21.07;97.15
6833;BME280;3454;42.654;23.378;2023-07-31T00:17:23;65213.19;;;21.18;97.87
6833;BME280;3454;42.654;23.378;2023-07-31T00:19:48;65216.31;;;21.18;99.38
6833;BME280;3454;42.654;23.378;2023-07-31T00:22:16;65203.78;;;21.09;98.22
6833;BME280;3454;42.654;23.378;2023-07-31T00:24:41;65209.53;;;21.17;98.71
6833;BME280;3454;42.654;23.378;2023-07-31T00:27:07;65218.53;;;21.20;97.51
6833;BME280;3454;42.654;23.378;2023-07-31T00:29:32;65225.38;;;21.29;96.43
6833;BME280;3454;42.654;23.378;2023-07-31T00:31:57;65231.81;;;21.32;97.49
6833;BME280;3454;42.654;23.378;2023-07-31T00:34:23;65225.91;;;21.29;96.73
6833;BME280;3454;42.654;23.378;2023-07-31T00:36:48;65202.69;;;21.08;98.12
6833;BME280;3454;42.654;23.378;2023-07-31T00:39:14;65190.84;;;20.95;99.71
6833;BME280;3454;42.654;23.378;2023-07-31T00:41:39;65193.63;;;20.98;100.00
6833;BME280;3454;42.654;23.378;2023-07-31T00:44:04;65199.38;;;21.05;100.00
6833;BME280;3454;42.654;23.378;2023-07-31T00:46:30;65209.34;;;21.14;100.00
6833;BME280;3454;42.654;23.378;2023-07-31T00:48:56;65206.00;;;21.11;100.00
6833;BME280;3454;42.654;23.378;2023-07-31T00:51:22;65177.44;;;20.87;100.00
6833;BME280;3454;42.654;23.378;2023-07-31T00:53:48;65163.78;;;20.70;100.00
6833;BME280;3454;42.654;23.378;2023-07-31T00:56:13;65149.41;;;20.57;100.00
6833;BME280;3454;42.654;23.378;2023-07-31T00:58:39;65140.78;;;20.52;100.00
6833;BME280;3454;42.654;23.378;2023-07-31T01:01:05;65141.53;;;20.55;100.00
6833;BME280;3454;42.654;23.378;2023-07-31T01:03:31;65147.94;;;20.58;100.00
6833;BME280;3454;42.654;23.378;2023-07-31T01:06:18;65158.66;;;20.70;100.00
6833;BME280;3454;42.654;23.378;2023-07-31T01:12:02;65133.03;;;20.45;100.00
6833;BME280;3454;42.654;23.378;2023-07-31T01:14:28;65123.09;;;20.36;100.00
6833;BME280;3454;42.654;23.378;2023-07-31T01:16:54;65130.06;;;20.40;100.00
6833;BME280;3454;42.654;23.378;2023-07-31T01:19:22;65123.09;;;20.36;100.00
6833;BME280;3454;42.654;23.378;2023-07-31T01:24:48;65117.56;;;20.31;100.00
6833;BME280;3454;42.654;23.378;2023-07-31T01:27:24;65114.78;;;20.28;100.00
6833;BME280;3454;42.654;23.378;2023-07-31T01:30:15;65107.63;;;20.22;100.00
6833;BME280;3454;42.654;23.378;2023-07-31T01:32:42;65100.78;;;20.13;100.00
6833;BME280;3454;42.654;23.378;2023-07-31T01:35:09;65088.47;;;20.06;100.00
6833;BME280;3454;42.654;23.378;2023-07-31T01:37:34;65112.94;;;20.24;100.00
6833;BME280;3454;42.654;23.378;2023-07-31T01:40:00;65108.53;;;20.20;100.00
6833;BME280;3454;42.654;23.378;2023-07-31T01:42:33;65097.09;;;20.12;100.00
6833;BME280;3454;42.654;23.378;2023-07-31T01:44:58;65089.03;;;20.07;100.00
6833;BME280;3454;42.654;23.378;2023-07-31T01:47:24;65094.88;;;20.10;100.00
6833;BME280;3454;42.654;23.378;2023-07-31T01:49:49;65087.38;;;20.05;100.00
6833;BME280;3454;42.654;23.378;2023-07-31T01:52:15;65093.03;;;20.06;100.00
6833;BME280;3454;42.654;23.378;2023-07-31T01:54:40;65083.31;;;19.99;100.00
6833;BME280;3454;42.654;23.378;2023-07-31T01:57:06;65076.13;;;19.93;100.00
6833;BME280;3454;42.654;23.378;2023-07-31T01:59:32;65078.88;;;19.95;100.00
6833;BME280;3454;42.654;23.378;2023-07-31T02:01:57;65084.19;;;19.98;100.00
6833;BME280;3454;42.654;23.378;2023-07-31T02:04:23;65067.84;;;19.85;100.00
6833;BME280;3454;42.654;23.378;2023-07-31T02:06:48;65062.53;;;19.83;100.00
6833;BME280;3454;42.654;23.378;2023-07-31T02:09:14;65061.22;;;19.79;100.00
6833;BME280;3454;42.654;23.378;2023-07-31T02:11:39;65062.31;;;19.80;100.00
6833;BME280;3454;42.654;23.378;2023-07-31T02:14:05;65057.34;;;19.76;100.00
6833;BME280;3454;42.654;23.378;2023-07-31T02:16:30;65069.28;;;19.84;100.00
6833;BME280;3454;42.654;23.378;2023-07-31T02:18:56;65049.63;;;19.69;100.00
6833;BME280;3454;42.654;23.378;2023-07-31T02:21:21;65052.53;;;19.67;100.00
6833;BME280;3454;42.654;23.378;2023-07-31T02:23:47;65050.53;;;19.67;100.00
6833;BME280;3454;42.654;23.378;2023-07-31T02:26:12;65057.69;;;19.74;100.00
6833;BME280;3454;42.654;23.378;2023-07-31T02:28:38;65058.44;;;19.77;100.00
6833;BME280;3454;42.654;23.378;2023-07-31T02:31:03;65056.25;;;19.75;100.00
6833;BME280;3454;42.654;23.378;2023-07-31T02:33:29;65072.06;;;19.87;100.00
6833;BME280;3454;42.654;23.378;2023-07-31T02:35:54;65056.44;;;19.77;100.00
6833;BME280;3454;42.654;23.378;2023-07-31T02:38:20;65067.84;;;19.85;100.00
6833;BME280;3454;42.654;23.378;2023-07-31T02:40:45;65075.34;;;19.90;100.00
6833;BME280;3454;42.654;23.378;2023-07-31T02:43:11;65069.28;;;19.84;100.00
6833;BME280;3454;42.654;23.378;2023-07-31T02:45:36;65073.34;;;19.90;100.00
6833;BME280;3454;42.654;23.378;2023-07-31T02:48:02;65079.25;;;19.93;100.00
6833;BME280;3454;42.654;23.378;2023-07-31T02:50:27;65072.78;;;19.90;100.00
6833;BME280;3454;42.654;23.378;2023-07-31T02:52:55;65085.16;;;20.03;100.00
6833;BME280;3454;42.654;23.378;2023-07-31T02:55:21;65094.00;;;20.12;100.00
6833;BME280;3454;42.654;23.378;2023-07-31T02:57:46;65079.97;;;19.96;100.00
6833;BME280;3454;42.654;23.378;2023-07-31T03:00:12;65086.81;;;20.05;100.00
6833;BME280;3454;42.654;23.378;2023-07-31T03:02:38;65093.03;;;20.06;100.00
6833;BME280;3454;42.654;23.378;2023-07-31T03:05:04;65097.09;;;20.12;100.00
6833;BME280;3454;42.654;23.378;2023-07-31T03:07:29;65103.19;;;20.18;100.00
6833;BME280;3454;42.654;23.378;2023-07-31T03:09:55;65099.88;;;20.15;100.00
6833;BME280;3454;42.654;23.378;2023-07-31T03:12:21;65100.97;;;20.16;100.00
6833;BME280;3454;42.654;23.378;2023-07-31T03:14:46;65108.16;;;20.22;100.00
6833;BME280;3454;42.654;23.378;2023-07-31T03:17:12;65095.66;;;20.13;100.00
6833;BME280;3454;42.654;23.378;2023-07-31T03:19:37;65097.66;;;20.13;100.00
6833;BME280;3454;42.654;23.378;2023-07-31T03:22:03;65095.44;;;20.10;100.00
6833;BME280;3454;42.654;23.378;2023-07-31T03:24:28;65101.88;;;20.14;100.00
6833;BME280;3454;42.654;23.378;2023-07-31T03:26:54;65096.56;;;20.12;100.00
6833;BME280;3454;42.654;23.378;2023-07-31T03:29:20;65091.38;;;20.04;100.00
6833;BME280;3454;42.654;23.378;2023-07-31T03:31:45;65087.50;;;20.01;100.00
6833;BME280;3454;42.654;23.378;2023-07-31T03:34:10;65082.41;;;20.01;100.00
6833;BME280;3454;42.654;23.378;2023-07-31T03:36:36;65087.16;;;20.03;100.00
6833;BME280;3454;42.654;23.378;2023-07-31T03:39:02;65093.25;;;20.08;100.00
6833;BME280;3454;42.654;23.378;2023-07-31T03:41:28;65096.91;;;20.09;100.00
6833;BME280;3454;42.654;23.378;2023-07-31T03:43:53;65097.88;;;20.15;100.00
6833;BME280;3454;42.654;23.378;2023-07-31T03:46:22;65104.06;;;20.16;100.00
6833;BME280;3454;42.654;23.378;2023-07-31T03:48:47;65114.44;;;20.30;100.00
6833;BME280;3454;42.654;23.378;2023-07-31T03:51:13;65121.44;;;20.34;100.00
6833;BME280;3454;42.654;23.378;2023-07-31T03:53:38;65130.25;;;20.42;100.00
6833;BME280;3454;42.654;23.378;2023-07-31T03:56:04;65121.06;;;20.36;100.00
6833;BME280;3454;42.654;23.378;2023-07-31T03:58:30;65123.09;;;20.36;100.00
6833;BME280;3454;42.654;23.378;2023-07-31T04:00:55;65124.91;;;20.33;100.00
6833;BME280;3454;42.654;23.378;2023-07-31T04:03:21;65113.34;;;20.29;100.00
6833;BME280;3454;42.654;23.378;2023-07-31T04:05:46;65122.34;;;20.33;100.00
6833;BME280;3454;42.654;23.378;2023-07-31T04:08:12;65113.69;;;20.27;100.00
6833;BME280;3454;42.654;23.378;2023-07-31T04:10:37;65105.41;;;20.20;100.00
6833;BME280;3454;42.654;23.378;2023-07-31T04:13:03;65110.38;;;20.24;100.00
6833;BME280;3454;42.654;23.378;2023-07-31T04:15:28;65114.25;;;20.28;100.00
6833;BME280;3454;42.654;23.378;2023-07-31T04:17:54;65110.72;;;20.22;100.00
6833;BME280;3454;42.654;23.378;2023-07-31T04:20:19;65105.41;;;20.20;100.00
6833;BME280;3454;42.654;23.378;2023-07-31T04:22:44;65109.84;;;20.24;100.00
6833;BME280;3454;42.654;23.378;2023-07-31T04:25:10;65105.59;;;20.22;100.00
6833;BME280;3454;42.654;23.378;2023-07-31T04:27:35;65111.28;;;20.23;100.00
6833;BME280;3454;42.654;23.378;2023-07-31T04:30:01;65108.72;;;20.23;100.00
6833;BME280;3454;42.654;23.378;2023-07-31T04:32:26;65105.97;;;20.20;100.00
6833;BME280;3454;42.654;23.378;2023-07-31T04:34:52;65110.38;;;20.24;100.00
6833;BME280;3454;42.654;23.378;2023-07-31T04:37:17;65112.41;;;20.24;100.00
6833;BME280;3454;42.654;23.378;2023-07-31T04:39:42;65117.91;;;20.29;100.00
6833;BME280;3454;42.654;23.378;2023-07-31T04:42:08;65121.78;;;20.32;100.00
6833;BME280;3454;42.654;23.378;2023-07-31T04:44:33;65124.19;;;20.37;100.00
6833;BME280;3454;42.654;23.378;2023-07-31T04:46:59;65113.91;;;20.30;100.00
6833;BME280;3454;42.654;23.378;2023-07-31T04:49:24;65134.69;;;20.46;100.00
6833;BME280;3454;42.654;23.378;2023-07-31T04:51:50;65126.06;;;20.41;100.00
6833;BME280;3454;42.654;23.378;2023-07-31T04:54:15;65118.69;;;20.32;100.00
6833;BME280;3454;42.654;23.378;2023-07-31T04:56:41;65121.25;;;20.32;100.00
6833;BME280;3454;42.654;23.378;2023-07-31T04:59:07;65126.19;;;20.36;100.00
6833;BME280;3454;42.654;23.378;2023-07-31T05:01:32;65124.53;;;20.35;100.00
6833;BME280;3454;42.654;23.378;2023-07-31T05:03:57;65130.47;;;20.45;100.00
6833;BME280;3454;42.654;23.378;2023-07-31T05:06:23;65131.38;;;20.43;100.00
6833;BME280;3454;42.654;23.378;2023-07-31T05:08:48;65135.25;;;20.47;100.00
6833;BME280;3454;42.654;23.378;2023-07-31T05:11:14;65132.47;;;20.44;100.00
6833;BME280;3454;42.654;23.378;2023-07-31T05:13:39;65147.06;;;20.60;100.00
6833;BME280;3454;42.654;23.378;2023-07-31T05:16:04;65147.63;;;20.60;100.00
6833;BME280;3454;42.654;23.378;2023-07-31T05:18:30;65151.84;;;20.62;100.00
6833;BME280;3454;42.654;23.378;2023-07-31T05:20:55;65159.56;;;20.69;100.00
6833;BME280;3454;42.654;23.378;2023-07-31T05:23:21;65167.31;;;20.76;100.00
6833;BME280;3454;42.654;23.378;2023-07-31T05:25:46;65166.53;;;20.73;100.00
6833;BME280;3454;42.654;23.378;2023-07-31T05:28:12;65161.22;;;20.70;100.00
6833;BME280;3454;42.654;23.378;2023-07-31T05:30:38;65166.75;;;20.75;100.00
6833;BME280;3454;42.654;23.378;2023-07-31T05:33:04;65171.72;;;20.80;100.00
6833;BME280;3454;42.654;23.378;2023-07-31T05:35:30;65170.59;;;20.79;100.00
6833;BME280;3454;42.654;23.378;2023-07-31T05:37:55;65182.78;;;20.90;100.00
6833;BME280;3454;42.654;23.378;2023-07-31T05:40:21;65200.50;;;21.06;100.00
6833;BME280;3454;42.654;23.378;2023-07-31T05:42:47;65188.31;;;20.95;100.00
6833;BME280;3454;42.654;23.378;2023-07-31T05:45:12;65198.28;;;21.04;100.00
6833;BME280;3454;42.654;23.378;2023-07-31T05:47:39;65192.19;;;20.99;100.00
6833;BME280;3454;42.654;23.378;2023-07-31T05:50:05;65188.31;;;20.95;100.00
6833;BME280;3454;42.654;23.378;2023-07-31T05:52:31;65192.38;;;21.01;100.00
6833;BME280;3454;42.654;23.378;2023-07-31T05:54:56;65191.06;;;20.98;100.00
6833;BME280;3454;42.654;23.378;2023-07-31T05:57:22;65191.97;;;20.96;100.00
6833;BME280;3454;42.654;23.378;2023-07-31T05:59:47;65198.63;;;21.02;100.00
6833;BME280;3454;42.654;23.378;2023-07-31T06:02:13;65207.69;;;21.13;100.00
6833;BME280;3454;42.654;23.378;2023-07-31T06:04:38;65203.09;;;21.13;100.00
6833;BME280;3454;42.654;23.378;2023-07-31T06:07:05;65203.78;;;21.09;100.00
6833;BME280;3454;42.654;23.378;2023-07-31T06:09:30;65202.91;;;21.11;100.00
6833;BME280;3454;42.654;23.378;2023-07-31T06:11:57;65191.97;;;20.96;100.00
6833;BME280;3454;42.654;23.378;2023-07-31T06:14:22;65185.19;;;20.95;100.00
6833;BME280;3454;42.654;23.378;2023-07-31T06:16:47;65200.13;;;21.08;100.00
6833;BME280;3454;42.654;23.378;2023-07-31T06:19:13;65199.38;;;21.05;99.56
6833;BME280;3454;42.654;23.378;2023-07-31T06:21:39;65203.25;;;21.09;99.05
6833;BME280;3454;42.654;23.378;2023-07-31T06:24:05;65211.53;;;21.16;98.68
6833;BME280;3454;42.654;23.378;2023-07-31T06:26:31;65225.16;;;21.26;98.02
6833;BME280;3454;42.654;23.378;2023-07-31T06:28:57;65233.66;;;21.36;96.55
6833;BME280;3454;42.654;23.378;2023-07-31T06:31:22;65241.59;;;21.46;92.93
6833;BME280;3454;42.654;23.378;2023-07-31T06:33:52;65259.09;;;21.59;90.71
6833;BME280;3454;42.654;23.378;2023-07-31T06:36:18;65268.50;;;21.68;89.85
6833;BME280;3454;42.654;23.378;2023-07-31T06:38:43;65271.28;;;21.70;89.32
6833;BME280;3454;42.654;23.378;2023-07-31T06:41:09;65265.38;;;21.67;88.67
6833;BME280;3454;42.654;23.378;2023-07-31T06:43:36;65266.84;;;21.66;88.88
6833;BME280;3454;42.654;23.378;2023-07-31T06:46:07;65277.91;;;21.77;89.50
6833;BME280;3454;42.654;23.378;2023-07-31T06:48:34;65273.50;;;21.72;88.90
6833;BME280;3454;42.654;23.378;2023-07-31T06:51:02;65251.38;;;21.52;92.00
6833;BME280;3454;42.654;23.378;2023-07-31T06:53:29;65272.56;;;21.74;90.69
6833;BME280;3454;42.654;23.378;2023-07-31T06:55:54;65277.56;;;21.79;90.85
6833;BME280;3454;42.654;23.378;2023-07-31T06:58:21;65282.34;;;21.81;90.92
6833;BME280;3454;42.654;23.378;2023-07-31T07:00:46;65277.00;;;21.78;91.36
6833;BME280;3454;42.654;23.378;2023-07-31T07:03:14;65273.50;;;21.72;90.90
6833;BME280;3454;42.654;23.378;2023-07-31T07:05:40;65268.50;;;21.68;90.18
6833;BME280;3454;42.654;23.378;2023-07-31T07:08:06;65264.06;;;21.64;90.23
6833;BME280;3454;42.654;23.378;2023-07-31T07:10:31;65268.16;;;21.70;89.74
6833;BME280;3454;42.654;23.378;2023-07-31T07:12:56;65264.84;;;21.67;89.14
6833;BME280;3454;42.654;23.378;2023-07-31T07:15:22;65296.19;;;21.93;88.68
6833;BME280;3454;42.654;23.378;2023-07-31T07:17:47;65292.50;;;21.92;87.78
6833;BME280;3454;42.654;23.378;2023-07-31T07:20:13;65322.97;;;22.20;85.51
6833;BME280;3454;42.654;23.378;2023-07-31T07:22:39;65346.75;;;22.41;84.79
6833;BME280;3454;42.654;23.378;2023-07-31T07:25:08;65357.25;;;22.51;83.12
6833;BME280;3454;42.654;23.378;2023-07-31T07:27:34;65365.91;;;22.56;82.52
6833;BME280;3454;42.654;23.378;2023-07-31T07:29:59;65370.78;;;22.66;81.89
6833;BME280;3454;42.654;23.378;2023-07-31T07:32:25;65354.31;;;22.46;80.48
6833;BME280;3454;42.654;23.378;2023-07-31T07:34:51;65334.22;;;22.32;81.27
6833;BME280;3454;42.654;23.378;2023-07-31T07:37:16;65358.19;;;22.49;81.67
6833;BME280;3454;42.654;23.378;2023-07-31T07:39:42;65343.41;;;22.38;82.98
6833;BME280;3454;42.654;23.378;2023-07-31T07:42:07;65342.88;;;22.38;82.25
6833;BME280;3454;42.654;23.378;2023-07-31T07:44:33;65355.59;;;22.49;82.30
6833;BME280;3454;42.654;23.378;2023-07-31T07:46:58;65362.81;;;22.56;79.47
6833;BME280;3454;42.654;23.378;2023-07-31T07:49:23;65369.81;;;22.60;80.39
6833;BME280;3454;42.654;23.378;2023-07-31T07:51:50;65366.13;;;22.59;78.48
6833;BME280;3454;42.654;23.378;2023-07-31T07:54:15;65392.88;;;22.79;77.56
6833;BME280;3454;42.654;23.378;2023-07-31T07:56:46;65413.22;;;23.02;77.93
6833;BME280;3454;42.654;23.378;2023-07-31T07:59:12;65435.91;;;23.22;76.92
6833;BME280;3454;42.654;23.378;2023-07-31T08:01:38;65478.03;;;23.61;76.24
6833;BME280;3454;42.654;23.378;2023-07-31T08:04:04;65470.28;;;23.54;74.54
6833;BME280;3454;42.654;23.378;2023-07-31T08:06:29;65483.41;;;23.63;73.57
6833;BME280;3454;42.654;23.378;2023-07-31T08:08:55;65486.91;;;23.69;71.48
6833;BME280;3454;42.654;23.378;2023-07-31T08:11:21;65475.28;;;23.58;69.83
6833;BME280;3454;42.654;23.378;2023-07-31T08:13:49;65470.28;;;23.54;70.07
6833;BME280;3454;42.654;23.378;2023-07-31T08:16:14;65494.13;;;23.75;71.62
6833;BME280;3454;42.654;23.378;2023-07-31T08:18:40;65517.19;;;23.94;70.80
6833;BME280;3454;42.654;23.378;2023-07-31T08:21:05;65527.41;;;24.05;70.37
6833;BME280;3454;42.654;23.378;2023-07-31T08:23:31;65549.00;;;24.25;69.60
6833;BME280;3454;42.654;23.378;2023-07-31T08:25:56;65556.22;;;24.32;68.66
6833;BME280;3454;42.654;23.378;2023-07-31T08:28:22;65525.72;;;24.04;69.83
6833;BME280;3454;42.654;23.378;2023-07-31T08:30:48;65529.63;;;24.07;67.84
6833;BME280;3454;42.654;23.378;2023-07-31T08:33:13;65513.16;;;23.95;68.09
6833;BME280;3454;42.654;23.378;2023-07-31T08:35:39;65532.94;;;24.10;68.82
6833;BME280;3454;42.654;23.378;2023-07-31T08:38:04;65540.13;;;24.17;67.43
6833;BME280;3454;42.654;23.378;2023-07-31T08:40:30;65531.84;;;24.09;67.44
6833;BME280;3454;42.654;23.378;2023-07-31T08:42:55;65550.66;;;24.27;67.92
6833;BME280;3454;42.654;23.378;2023-07-31T08:45:28;65587.84;;;24.60;68.30
6833;BME280;3454;42.654;23.378;2023-07-31T08:47:53;65558.63;;;24.36;66.04
6833;BME280;3454;42.654;23.378;2023-07-31T08:50:21;65547.50;;;24.19;64.67
6833;BME280;3454;42.654;23.378;2023-07-31T08:52:47;65557.16;;;24.37;65.40
6833;BME280;3454;42.654;23.378;2023-07-31T08:55:13;65588.94;;;24.61;64.50
6833;BME280;3454;42.654;23.378;2023-07-31T08:57:39;65594.13;;;24.68;63.54
6833;BME280;3454;42.654;23.378;2023-07-31T09:00:07;65608.91;;;24.79;62.99
6833;BME280;3454;42.654;23.378;2023-07-31T09:02:46;65587.28;;;24.60;62.49
6833;BME280;3454;42.654;23.378;2023-07-31T09:05:12;65602.25;;;24.73;62.25
6833;BME280;3454;42.654;23.378;2023-07-31T09:07:38;65600.94;;;24.70;63.36
6833;BME280;3454;42.654;23.378;2023-07-31T09:10:05;65589.50;;;24.62;63.39
6833;BME280;3454;42.654;23.378;2023-07-31T09:12:31;65557.31;;;24.33;63.70
6833;BME280;3454;42.654;23.378;2023-07-31T09:14:57;65608.19;;;24.76;63.17
6833;BME280;3454;42.654;23.378;2023-07-31T09:17:33;65598.56;;;24.72;61.74
6833;BME280;3454;42.654;23.378;2023-07-31T09:20:25;65619.09;;;24.91;60.54
6833;BME280;3454;42.654;23.378;2023-07-31T09:22:51;65650.72;;;25.20;59.65
6833;BME280;3454;42.654;23.378;2023-07-31T09:25:25;65698.66;;;25.58;58.70
6833;BME280;3454;42.654;23.378;2023-07-31T09:27:54;65712.69;;;25.73;58.55
6833;BME280;3454;42.654;23.378;2023-07-31T09:30:20;65703.66;;;25.63;57.01
6833;BME280;3454;42.654;23.378;2023-07-31T09:32:48;65668.47;;;25.36;57.65
6833;BME280;3454;42.654;23.378;2023-07-31T09:35:30;65703.81;;;25.65;56.60
6833;BME280;3454;42.654;23.378;2023-07-31T09:38:11;65704.94;;;25.66;56.23
6833;BME280;3454;42.654;23.378;2023-07-31T09:40:42;65684.75;;;25.46;57.35
6833;BME280;3454;42.654;23.378;2023-07-31T09:43:10;65715.47;;;25.76;58.19
6833;BME280;3454;42.654;23.378;2023-07-31T09:45:43;65688.84;;;25.52;59.15
6833;BME280;3454;42.654;23.378;2023-07-31T09:48:13;65634.63;;;25.05;59.94
6833;BME280;3454;42.654;23.378;2023-07-31T09:50:43;65635.91;;;25.02;59.51
6833;BME280;3454;42.654;23.378;2023-07-31T09:53:09;65672.19;;;25.37;58.77
6833;BME280;3454;42.654;23.378;2023-07-31T09:55:35;65758.47;;;26.17;57.33
6833;BME280;3454;42.654;23.378;2023-07-31T09:58:04;65788.44;;;26.44;55.95
6833;BME280;3454;42.654;23.378;2023-07-31T10:00:30;65787.91;;;26.44;54.74
6833;BME280;3454;42.654;23.378;2023-07-31T10:02:59;65753.47;;;26.13;56.46
6833;BME280;3454;42.654;23.378;2023-07-31T10:05:31;65798.81;;;26.51;54.47
6833;BME280;3454;42.654;23.378;2023-07-31T10:07:58;65838.28;;;26.87;53.21
6833;BME280;3454;42.654;23.378;2023-07-31T10:10:24;65775.47;;;26.30;53.32
6833;BME280;3454;42.654;23.378;2023-07-31T10:12:52;65703.81;;;25.65;55.06
6833;BME280;3454;42.654;23.378;2023-07-31T10:15:18;65748.78;;;26.06;54.75
6833;BME280;3454;42.654;23.378;2023-07-31T10:17:46;65746.56;;;26.04;54.23
6833;BME280;3454;42.654;23.378;2023-07-31T10:20:12;65719.94;;;25.80;55.21
6833;BME280;3454;42.654;23.378;2023-07-31T10:22:39;65724.00;;;25.86;54.71
6833;BME280;3454;42.654;23.378;2023-07-31T10:25:07;65724.94;;;25.85;54.74
6833;BME280;3454;42.654;23.378;2023-07-31T10:27:35;65776.22;;;26.33;54.22
6833;BME280;3454;42.654;23.378;2023-07-31T10:30:03;65716.03;;;25.76;55.74
6833;BME280;3454;42.654;23.378;2023-07-31T10:32:30;65681.09;;;25.45;55.21
6833;BME280;3454;42.654;23.378;2023-07-31T10:34:57;65691.06;;;25.54;55.62
6833;BME280;3454;42.654;23.378;2023-07-31T10:42:27;65814.00;;;26.68;49.64
6833;BME280;3454;42.654;23.378;2023-07-31T10:44:57;65872.94;;;27.21;49.92
6833;BME280;3454;42.654;23.378;2023-07-31T10:47:23;65991.97;;;28.29;48.15
6833;BME280;3454;42.654;23.378;2023-07-31T10:49:49;66069.53;;;29.01;45.43
6833;BME280;3454;42.654;23.378;2023-07-31T10:52:19;66026.50;;;28.60;44.43
6833;BME280;3454;42.654;23.378;2023-07-31T10:54:49;65970.28;;;28.09;46.05
6833;BME280;3454;42.654;23.378;2023-07-31T10:57:22;66034.66;;;28.65;46.64
6833;BME280;3454;42.654;23.378;2023-07-31T10:59:49;66060.81;;;28.88;43.90
6833;BME280;3454;42.654;23.378;2023-07-31T11:02:26;66065.44;;;28.95;43.54
6833;BME280;3454;42.654;23.378;2023-07-31T11:05:09;66006.81;;;28.40;44.47
6833;BME280;3454;42.654;23.378;2023-07-31T11:07:50;65914.09;;;27.58;45.98
6833;BME280;3454;42.654;23.378;2023-07-31T11:10:19;65915.56;;;27.57;46.35
6833;BME280;3454;42.654;23.378;2023-07-31T11:12:47;65905.00;;;27.48;46.40
6833;BME280;3454;42.654;23.378;2023-07-31T11:15:13;65870.72;;;27.19;48.00
6833;BME280;3454;42.654;23.378;2023-07-31T11:17:41;65824.38;;;26.75;48.74
6833;BME280;3454;42.654;23.378;2023-07-31T11:20:07;65850.31;;;27.03;48.78
6833;BME280;3454;42.654;23.378;2023-07-31T11:22:35;65922.25;;;27.63;45.32
6833;BME280;3454;42.654;23.378;2023-07-31T11:25:02;65950.78;;;27.91;44.23
6833;BME280;3454;42.654;23.378;2023-07-31T11:27:29;65931.16;;;27.71;44.84
6833;BME280;3454;42.654;23.378;2023-07-31T11:30:00;65993.47;;;28.28;43.35
6833;BME280;3454;42.654;23.378;2023-07-31T11:32:27;65981.78;;;28.17;43.89
6833;BME280;3454;42.654;23.378;2023-07-31T11:34:53;65862.91;;;27.12;45.04
6833;BME280;3454;42.654;23.378;2023-07-31T11:37:19;65846.25;;;26.97;46.39
6833;BME280;3454;42.654;23.378;2023-07-31T11:40:01;65862.72;;;27.09;46.41
6833;BME280;3454;42.654;23.378;2023-07-31T11:42:26;65836.63;;;26.86;46.75
6833;BME280;3454;42.654;23.378;2023-07-31T11:44:52;65832.16;;;26.82;46.44
6833;BME280;3454;42.654;23.378;2023-07-31T11:47:17;65797.16;;;26.50;46.98
6833;BME280;3454;42.654;23.378;2023-07-31T11:49:43;65785.69;;;26.42;47.34
6833;BME280;3454;42.654;23.378;2023-07-31T11:52:10;65781.03;;;26.35;47.86
6833;BME280;3454;42.654;23.378;2023-07-31T11:54:37;65846.59;;;26.95;47.33
6833;BME280;3454;42.654;23.378;2023-07-31T11:57:03;65963.97;;;28.01;46.92
6833;BME280;3454;42.654;23.378;2023-07-31T11:59:29;66013.13;;;28.48;44.51
6833;BME280;3454;42.654;23.378;2023-07-31T12:01:55;66006.44;;;28.42;44.76
6833;BME280;3454;42.654;23.378;2023-07-31T12:04:21;65913.16;;;27.60;45.25
6833;BME280;3454;42.654;23.378;2023-07-31T12:06:47;65904.63;;;27.50;45.66
6833;BME280;3454;42.654;23.378;2023-07-31T12:09:16;65958.59;;;27.98;44.97
6833;BME280;3454;42.654;23.378;2023-07-31T12:11:47;66037.44;;;28.67;43.14
6833;BME280;3454;42.654;23.378;2023-07-31T12:14:27;66064.16;;;28.91;41.87
6833;BME280;3454;42.654;23.378;2023-07-31T12:17:01;66059.13;;;28.87;42.25
6833;BME280;3454;42.654;23.378;2023-07-31T12:19:29;66075.84;;;29.02;40.95
6833;BME280;3454;42.654;23.378;2023-07-31T12:21:56;65991.78;;;28.26;43.50
6833;BME280;3454;42.654;23.378;2023-07-31T12:24:29;65950.03;;;27.88;44.55
6833;BME280;3454;42.654;23.378;2023-07-31T12:26:54;65989.38;;;28.29;43.80
6833;BME280;3454;42.654;23.378;2023-07-31T12:29:20;66055.44;;;28.86;42.74
6833;BME280;3454;42.654;23.378;2023-07-31T12:31:46;66034.66;;;28.65;42.62
6833;BME280;3454;42.654;23.378;2023-07-31T12:34:16;65961.38;;;28.01;44.26
6833;BME280;3454;42.654;23.378;2023-07-31T12:36:43;65916.13;;;27.58;45.27
6833;BME280;3454;42.654;23.378;2023-07-31T12:39:09;65930.03;;;27.70;46.35
6833;BME280;3454;42.654;23.378;2023-07-31T12:41:35;65954.13;;;27.94;46.66
6833;BME280;3454;42.654;23.378;2023-07-31T12:44:01;65901.09;;;27.44;45.83
6833;BME280;3454;42.654;23.378;2023-07-31T12:46:26;65906.69;;;27.49;45.57
6833;BME280;3454;42.654;23.378;2023-07-31T12:48:52;65932.63;;;27.77;44.70
6833;BME280;3454;42.654;23.378;2023-07-31T12:51:17;65882.19;;;27.27;45.57
6833;BME280;3454;42.654;23.378;2023-07-31T12:53:43;65870.16;;;27.18;46.44
6833;BME280;3454;42.654;23.378;2023-07-31T12:56:08;65886.66;;;27.31;46.14
6833;BME280;3454;42.654;23.378;2023-07-31T12:58:34;65883.50;;;27.30;45.26
6833;BME280;3454;42.654;23.378;2023-07-31T13:00:59;65896.66;;;27.40;44.96
6833;BME280;3454;42.654;23.378;2023-07-31T13:03:25;65911.66;;;27.54;45.39
6833;BME280;3454;42.654;23.378;2023-07-31T13:05:52;65986.78;;;28.21;43.04
6833;BME280;3454;42.654;23.378;2023-07-31T13:08:17;65986.94;;;28.24;43.37
6833;BME280;3454;42.654;23.378;2023-07-31T13:10:43;65986.22;;;28.21;43.07
6833;BME280;3454;42.654;23.378;2023-07-31T13:13:09;66021.69;;;28.58;42.85
6833;BME280;3454;42.654;23.378;2023-07-31T13:15:35;66049.84;;;28.81;43.39